Portada
METAR-TAF:

METAR-TAF

Aeroports :

Tumbes, Perú

latitud: 03-33S, longitud: 080-24W, altitud: 25 m

Observació

L'informe es va fer fa 5 hores i 53 minuts, a les 02:00 UTC
Vent 5 kt del Oest/Sud-Oest
Temperatura 22°C
Humitat 83%
Pressió 1012 hPa
Visibilitat 10 km o més
Cel cobert a una alçada de 1100 ft

METAR: SPME 210200Z 25005KT 9999 OVC011 22/19 Q1012 RMK BIRD HAZARD RWY 32/14 PP000

Hora: 02:53 (07:53 UTC)

Pronòstic

L'informe es va fer fa 7 hores i 51 minuts, a les 00:02 UTC
Pronòstic vàlid del 21 a les 00 UTC al 21 a les 24 UTC
Vent 5 kt del Oest/Nord-Oest
Visibilitat 10 km o més
Cel cobert a una alçada de 1200 ft

TAF: SPME 210002Z 2100/2124 29005KT 9999 OVC012 TX26/2119Z TN20/2111Z

Observacions i pronòstics meteorològics de més de 4000 aeroports (METAR i TAF).

Les estacions disponibles són els punts grocs i vermells al mapa.

Posi el ratolí al punt desitjat per veure el nom de l'estació.

Feu clic per veure les observacions i els pronòstics meteorològics.

Per canviar el mapa: feu clic els botons verds amb una creu de color negre per apropar; al botó verd amb un guió per allunyar la imatge; o en les fletxes verdes per a mapes adjacents.


METAR-TAF: